Main page
METAR-TAF:

METAR-TAF

Airports :

Tunis–Carthage International Airport

Tunis, Tunisia

latitude: 36-50N, longitude: 010-14E, elevation: 3 m

Current weather observation

The report was made 31 minutes ago, at 06:30 UTC
Wind 9 kt from the West/Northwest, varying between West/Southwest and North/Northwest
Temperature 22°C
Humidity 69%
Pressure 1016 hPa
Visibility 10 km or more
Few clouds at a height of 3000 ft

METAR: DTTA 190630Z 29009KT 250V330 9999 FEW030 22/16 Q1016 NOSIG

Time: 08:01 (07:01 UTC)

Forecast

The report was made 1 hour and 23 minutes ago, at 05:38 UTC
Forecast valid from 19 at 06 UTC to 20 at 06 UTC
Wind 7 kt from the West
Visibility 10 km or more
no clouds below 1500 m and no cumulonimbus
Becoming
from 19 at 10 UTC to 19 at 12 UTC
Wind 12 kt from the North

TAF: DTTA 190538Z 1906/2006 27007KT CAVOK BECMG 1910/1912 35012KT

Weather observations and forecasts of more than 4000 airports (METAR and TAF reports).

The available stations are represented by yellow and red dots on the map.

Hover mouse over dot to see the name of the station.

Then click to see weather observations and forecasts.

To change the map : click on the green buttons with a black cross to zoom in, on the green button with a dash to zoom out, or on the green arrows for adjacent maps.


METAR-TAF: